createdAt,value
2023-01-20T00:00:03.768Z,15.57
2023-01-20T00:05:25.499Z,16.67
2023-01-20T00:10:47.233Z,19.83
2023-01-20T00:16:10.783Z,18.60
2023-01-20T00:21:32.744Z,16.23
2023-01-20T00:26:54.485Z,15.97
2023-01-20T00:32:16.190Z,21.40
2023-01-20T00:37:38.465Z,21.77
2023-01-20T00:43:00.192Z,23.57
2023-01-20T00:48:22.022Z,23.60
2023-01-20T00:53:43.777Z,19.17
2023-01-20T00:59:05.492Z,21.23
2023-01-20T01:04:27.285Z,20.40
2023-01-20T01:09:49.023Z,20.93
2023-01-20T01:15:11.344Z,20.57
2023-01-20T01:20:33.231Z,18.00
2023-01-20T01:25:54.962Z,18.20
2023-01-20T01:31:18.895Z,19.63
2023-01-20T01:36:40.695Z,17.40
2023-01-20T01:42:02.463Z,21.63
2023-01-20T01:47:24.467Z,15.03
2023-01-20T01:52:50.360Z,20.07
2023-01-20T01:58:15.608Z,19.33
2023-01-20T02:04:09.516Z,15.60
2023-01-20T02:09:31.666Z,16.67
2023-01-20T02:14:56.533Z,17.50
2023-01-20T02:20:57.609Z,19.67
2023-01-20T02:26:31.127Z,18.07
2023-01-20T02:32:21.361Z,20.80
2023-01-20T02:37:52.012Z,17.97
2023-01-20T02:43:28.946Z,21.40
2023-01-20T02:49:15.002Z,19.17
2023-01-20T02:54:40.002Z,20.67
2023-01-20T03:00:07.760Z,18.97
2023-01-20T03:05:33.154Z,19.70
2023-01-20T03:10:59.266Z,15.87
2023-01-20T03:16:23.689Z,22.07
2023-01-20T03:21:45.717Z,17.33
2023-01-20T03:27:07.790Z,18.07
2023-01-20T03:32:29.921Z,16.63
2023-01-20T03:37:52.078Z,18.17
2023-01-20T03:43:38.718Z,13.57
2023-01-20T03:49:35.939Z,12.10
2023-01-20T03:55:07.215Z,11.23
2023-01-20T04:00:32.701Z,10.23
2023-01-20T04:05:58.217Z,9.30
2023-01-20T04:11:20.487Z,10.47
2023-01-20T04:16:43.268Z,9.97
2023-01-20T04:22:12.401Z,11.27
2023-01-20T04:27:34.188Z,8.53
2023-01-20T04:32:55.901Z,8.57
2023-01-20T04:38:17.612Z,10.03
2023-01-20T04:43:43.874Z,11.23
2023-01-20T04:49:05.652Z,9.57
2023-01-20T04:54:27.415Z,8.87
2023-01-20T04:59:49.918Z,10.53
2023-01-20T05:05:11.652Z,10.37
2023-01-20T05:10:33.730Z,9.10
2023-01-20T05:15:55.634Z,10.03
2023-01-20T05:21:17.432Z,10.27
2023-01-20T05:26:39.161Z,10.33
2023-01-20T05:32:00.900Z,10.20
2023-01-20T05:37:22.633Z,8.87
2023-01-20T05:42:44.373Z,10.80
2023-01-20T05:48:06.406Z,9.43
2023-01-20T05:53:28.110Z,12.20
2023-01-20T05:58:54.125Z,11.87
2023-01-20T06:04:15.828Z,12.30
2023-01-20T06:09:37.602Z,12.13
2023-01-20T06:14:59.327Z,9.93
2023-01-20T06:20:21.122Z,10.67
2023-01-20T06:25:43.925Z,11.60
2023-01-20T06:31:11.754Z,13.17
2023-01-20T06:36:33.530Z,11.47
2023-01-20T06:41:59.570Z,9.53
2023-01-20T06:47:21.304Z,10.93
2023-01-20T06:52:43.085Z,13.27
2023-01-20T06:58:04.832Z,12.03
2023-01-20T07:03:26.565Z,13.17
2023-01-20T07:08:48.382Z,13.47
2023-01-20T07:14:10.396Z,19.57
2023-01-20T07:19:32.108Z,12.47
2023-01-20T07:24:53.842Z,13.17
2023-01-20T07:30:15.951Z,11.00
2023-01-20T07:35:37.659Z,11.10
2023-01-20T07:41:18.211Z,14.17
2023-01-20T07:46:39.899Z,10.60
2023-01-20T07:52:01.649Z,9.63
2023-01-20T07:57:23.438Z,11.73
2023-01-20T08:02:45.198Z,11.53
2023-01-20T08:08:06.914Z,12.37
2023-01-20T08:13:29.274Z,10.43
2023-01-20T08:18:54.593Z,12.43
2023-01-20T08:24:16.332Z,13.27
2023-01-20T08:29:38.099Z,14.53
2023-01-20T08:34:59.990Z,11.93
2023-01-20T08:40:21.820Z,13.50
2023-01-20T08:45:43.783Z,21.80
2023-01-20T08:51:14.336Z,14.97
2023-01-20T08:56:36.798Z,12.07
2023-01-20T09:01:58.554Z,13.80
2023-01-20T09:07:20.565Z,12.80
2023-01-20T09:12:42.334Z,11.40
2023-01-20T09:18:04.152Z,12.47
2023-01-20T09:23:26.676Z,12.33
2023-01-20T09:28:48.398Z,17.50
2023-01-20T09:34:11.871Z,12.90
2023-01-20T09:39:53.299Z,12.97
2023-01-20T09:45:24.542Z,13.70
2023-01-20T09:51:15.309Z,12.77
2023-01-20T09:56:43.841Z,11.63
2023-01-20T10:02:17.071Z,12.20
2023-01-20T10:07:50.642Z,11.93
2023-01-20T10:13:56.388Z,14.20
2023-01-20T10:19:27.096Z,14.30
2023-01-20T10:25:13.858Z,14.80
2023-01-20T10:30:37.266Z,15.60
2023-01-20T10:36:00.383Z,12.43
2023-01-20T10:41:26.943Z,12.87
2023-01-20T10:47:14.862Z,15.80
2023-01-20T10:52:56.126Z,17.03
2023-01-20T10:58:31.282Z,10.57
2023-01-20T11:03:53.156Z,13.20
2023-01-20T11:09:27.442Z,11.40
2023-01-20T11:14:49.600Z,12.10
2023-01-20T11:20:19.589Z,8.17
2023-01-20T11:25:41.321Z,10.87
2023-01-20T11:31:04.462Z,10.17
2023-01-20T11:36:27.605Z,7.27
2023-01-20T11:41:49.323Z,12.97
2023-01-20T11:47:26.141Z,8.27
2023-01-20T11:52:47.922Z,10.77
2023-01-20T11:58:25.888Z,7.60
2023-01-20T12:03:53.557Z,10.53
2023-01-20T12:09:18.255Z,13.50
2023-01-20T12:15:02.366Z,15.67
2023-01-20T12:20:42.322Z,8.43
2023-01-20T12:26:13.087Z,6.40
2023-01-20T12:31:34.970Z,6.93
2023-01-20T12:37:16.813Z,7.37
2023-01-20T12:43:02.051Z,10.03
2023-01-20T12:48:48.637Z,7.07
2023-01-20T12:54:42.960Z,9.90
2023-01-20T13:00:23.203Z,6.37
2023-01-20T13:06:12.949Z,10.13
2023-01-20T13:11:54.085Z,7.50
2023-01-20T13:17:30.086Z,12.53
2023-01-20T13:22:54.618Z,8.43
2023-01-20T13:28:19.409Z,8.80
2023-01-20T13:33:42.240Z,10.63
2023-01-20T13:39:40.431Z,7.20
2023-01-20T13:45:14.809Z,7.53
2023-01-20T13:50:41.680Z,7.03
2023-01-20T13:56:03.503Z,5.53
2023-01-20T14:01:26.809Z,6.23
2023-01-20T14:06:51.202Z,7.60
2023-01-20T14:12:13.000Z,4.97
2023-01-20T14:17:34.719Z,8.17
2023-01-20T14:23:23.280Z,6.30
2023-01-20T14:28:48.609Z,7.60
2023-01-20T14:34:25.706Z,6.33
2023-01-20T14:39:49.981Z,12.10
2023-01-20T14:45:23.536Z,7.20
2023-01-20T14:50:52.387Z,6.20
2023-01-20T14:56:19.430Z,4.53
2023-01-20T15:01:41.239Z,8.47
2023-01-20T15:07:03.147Z,9.43
2023-01-20T15:12:47.053Z,5.57
2023-01-20T15:18:11.810Z,6.47
2023-01-20T15:23:39.272Z,5.60
2023-01-20T15:29:01.091Z,2.57
2023-01-20T15:34:23.541Z,7.97
2023-01-20T15:39:45.901Z,6.43
2023-01-20T15:45:08.586Z,6.33
2023-01-20T15:50:31.534Z,8.30
2023-01-20T15:55:53.430Z,6.33
2023-01-20T16:01:17.926Z,7.13
2023-01-20T16:06:39.828Z,13.57
2023-01-20T16:12:01.718Z,13.80
2023-01-20T16:17:25.276Z,5.83
2023-01-20T16:22:47.067Z,5.30
2023-01-20T16:28:18.567Z,5.03
2023-01-20T16:33:40.413Z,6.40
2023-01-20T16:39:02.115Z,6.93
2023-01-20T16:44:23.833Z,13.80
2023-01-20T16:49:45.690Z,7.20
2023-01-20T16:55:07.780Z,6.57
2023-01-20T17:00:29.475Z,15.60
2023-01-20T17:05:51.207Z,12.10
2023-01-20T17:11:20.401Z,18.40
2023-01-20T17:16:42.239Z,8.63
2023-01-20T17:22:03.997Z,7.33
2023-01-20T17:27:25.738Z,10.95
2023-01-20T17:32:48.438Z,9.47
2023-01-20T17:38:10.304Z,8.30
2023-01-20T17:43:33.538Z,21.67
2023-01-20T17:48:59.891Z,13.50
2023-01-20T17:54:21.587Z,13.37
2023-01-20T17:59:43.381Z,15.13
2023-01-20T18:05:05.504Z,15.70
2023-01-20T18:10:27.748Z,14.03
2023-01-20T18:15:49.655Z,15.00
2023-01-20T18:21:19.459Z,14.07
2023-01-20T18:26:44.932Z,12.57
2023-01-20T18:32:06.759Z,11.40
2023-01-20T18:37:28.655Z,10.00
2023-01-20T18:42:50.405Z,11.50
2023-01-20T18:48:12.115Z,9.67
2023-01-20T18:53:34.008Z,13.17
2023-01-20T18:58:56.125Z,9.87
2023-01-20T19:04:18.094Z,7.53
2023-01-20T19:09:39.902Z,10.00
2023-01-20T19:15:01.670Z,7.83
2023-01-20T19:20:23.496Z,8.83
2023-01-20T19:25:45.249Z,8.53
2023-01-20T19:31:08.790Z,13.37
2023-01-20T19:36:31.390Z,15.77
2023-01-20T19:41:53.604Z,13.77
2023-01-20T19:47:15.391Z,14.33
2023-01-20T19:52:37.143Z,11.33
2023-01-20T19:58:00.927Z,11.50
2023-01-20T20:03:22.695Z,10.17
2023-01-20T20:08:44.540Z,12.20
2023-01-20T20:14:08.129Z,11.13
2023-01-20T20:19:30.013Z,11.50
2023-01-20T20:24:52.852Z,14.73
2023-01-20T20:30:15.045Z,17.47
2023-01-20T20:35:37.686Z,13.57
2023-01-20T20:40:59.739Z,17.20
2023-01-20T20:46:21.748Z,19.93
2023-01-20T20:51:43.856Z,21.33
2023-01-20T20:57:07.500Z,25.47
2023-01-20T21:02:29.301Z,13.40
2023-01-20T21:07:51.263Z,11.67
2023-01-20T21:13:13.036Z,12.33
2023-01-20T21:18:36.172Z,14.30
2023-01-20T21:23:59.656Z,10.43
2023-01-20T21:29:21.426Z,9.30
2023-01-20T21:34:43.195Z,11.03
2023-01-20T21:40:05.854Z,10.67
2023-01-20T21:45:27.554Z,10.57
2023-01-20T21:51:07.950Z,10.20
2023-01-20T21:56:29.679Z,16.23
2023-01-20T22:01:51.709Z,13.23
2023-01-20T22:07:15.533Z,16.13
2023-01-20T22:12:37.383Z,12.83
2023-01-20T22:17:59.319Z,10.27
2023-01-20T22:23:21.056Z,12.37
2023-01-20T22:28:43.173Z,12.47
2023-01-20T22:34:06.295Z,17.07
2023-01-20T22:39:28.327Z,13.03
2023-01-20T22:44:50.108Z,15.70
2023-01-20T22:50:11.981Z,14.67
2023-01-20T22:55:33.702Z,11.93
2023-01-20T23:00:55.479Z,10.60
2023-01-20T23:06:17.997Z,12.43
2023-01-20T23:11:40.518Z,12.03
2023-01-20T23:17:02.220Z,20.97
2023-01-20T23:22:24.207Z,13.33
2023-01-20T23:27:45.971Z,13.17
2023-01-20T23:33:08.575Z,13.30
2023-01-20T23:38:30.856Z,13.87
2023-01-20T23:43:52.750Z,11.43
2023-01-20T23:49:14.569Z,14.27
2023-01-20T23:54:36.293Z,15.47
2023-01-20T23:59:58.040Z,19.07
